Time;durP1;ratioP1;P1;durP2;ratioP2;P2;SDS_P1;SDS_P2;PMS_P1;PMS_P2;Temp;Humidity;BMP_temperature;BMP_pressure;BME280_temperature;BME280_humidity;BME280_pressure;Samples;Min_cycle;Max_cycle;Signal;HPM_P1;HPM_P2
2023/02/22 00:03:59;;;;;;;26.65;10.52;;;;;;;8.04;74.09;99744.25;4969123;28;20705;-41
2023/02/22 00:06:26;;;;;;;26.02;12.40;;;;;;;8.02;74.24;99740.78;4973665;28;20051;-43
2023/02/22 00:08:54;;;;;;;30.35;10.90;;;;;;;8.06;73.44;99742.53;4966230;28;20477;-43
2023/02/22 00:11:21;;;;;;;27.15;10.27;;;;;;;8.06;74.58;99742.53;4967369;28;20554;-45
2023/02/22 00:13:49;;;;;;;27.35;10.18;;;;;;;8.06;73.21;99737.38;4968184;28;20554;-41
2023/02/22 00:16:19;;;;;;;25.92;10.73;;;;;;;8.06;73.89;99739.94;4967933;28;20061;-45
2023/02/22 00:18:47;;;;;;;25.88;10.13;;;;;;;8.06;74.30;99733.06;4976902;28;20038;-45
2023/02/22 00:21:15;;;;;;;22.00;10.43;;;;;;;8.09;74.24;99733.09;4987024;28;20066;-43
2023/02/22 00:23:46;;;;;;;25.23;10.98;;;;;;;8.09;73.94;99727.06;4966046;28;20050;-44
2023/02/22 00:26:17;;;;;;;24.25;9.80;;;;;;;8.08;73.41;99718.44;4968659;28;20081;-45
2023/02/22 00:28:47;;;;;;;24.88;10.52;;;;;;;8.07;73.28;99713.31;4967236;28;20134;-44
2023/02/22 00:31:13;;;;;;;23.35;10.43;;;;;;;8.07;73.77;99716.75;4970964;28;20150;-43
2023/02/22 00:33:41;;;;;;;25.65;10.30;;;;;;;8.06;74.13;99719.31;4980210;28;20058;-45
2023/02/22 00:36:10;;;;;;;23.08;9.75;;;;;;;8.08;73.41;99707.28;4983039;28;20159;-46
2023/02/22 00:38:38;;;;;;;23.95;10.18;;;;;;;8.09;74.13;99711.59;4966821;28;20066;-41
2023/02/22 00:41:05;;;;;;;23.48;10.60;;;;;;;8.08;73.98;99708.13;4967496;28;20102;-40
2023/02/22 00:43:32;;;;;;;24.50;9.65;;;;;;;8.09;74.04;99701.25;4968613;28;20043;-45
2023/02/22 00:45:59;;;;;;;24.50;10.07;;;;;;;8.08;73.42;99689.22;4978750;28;20146;-45
2023/02/22 00:48:25;;;;;;;24.58;10.55;;;;;;;8.10;74.13;99692.66;4987866;28;20130;-41
2023/02/22 00:50:54;;;;;;;24.13;9.40;;;;;;;8.09;73.25;99685.78;4981177;28;20490;-40
2023/02/22 00:53:23;;;;;;;26.52;11.32;;;;;;;8.08;73.47;99678.91;4972776;28;20108;-44
2023/02/22 00:55:50;;;;;;;25.63;10.48;;;;;;;8.05;73.40;99679.78;4982175;28;20054;-44
2023/02/22 00:58:17;;;;;;;22.95;10.05;;;;;;;8.04;74.13;99677.19;4977546;28;20055;-44
2023/02/22 01:00:44;;;;;;;22.23;10.13;;;;;;;8.02;73.62;99673.75;4984565;28;20399;-42
2023/02/22 01:03:13;;;;;;;24.27;9.75;;;;;;;8.01;74.07;99674.59;4957829;28;20081;-46
2023/02/22 01:05:41;;;;;;;22.05;9.77;;;;;;;7.95;73.64;99671.16;4986662;28;20129;-43
2023/02/22 01:08:09;;;;;;;24.25;10.68;;;;;;;7.91;73.52;99674.56;4970859;28;20053;-41
2023/02/22 01:10:37;;;;;;;23.10;10.57;;;;;;;7.89;73.30;99673.72;4984917;28;20075;-46
2023/02/22 01:13:07;;;;;;;22.70;10.73;;;;;;;7.87;74.04;99680.56;4971430;28;20073;-44
2023/02/22 01:15:36;;;;;;;23.10;11.23;;;;;;;7.88;74.71;99686.59;4954313;28;20054;-44
2023/02/22 01:18:04;;;;;;;24.13;10.88;;;;;;;7.84;74.72;99683.16;4969812;28;20050;-47
2023/02/22 01:20:32;;;;;;;25.88;10.88;;;;;;;7.84;74.34;99670.28;4988083;28;20133;-43
2023/02/22 01:23:02;;;;;;;23.75;10.60;;;;;;;7.80;74.76;99678.88;4963399;28;20415;-47
2023/02/22 01:25:31;;;;;;;25.35;11.07;;;;;;;7.79;73.70;99687.44;4985607;28;20143;-43
2023/02/22 01:28:01;;;;;;;24.15;10.23;;;;;;;7.77;73.72;99689.16;4971321;28;20050;-44
2023/02/22 01:30:31;;;;;;;25.63;10.85;;;;;;;7.76;74.33;99682.25;4981638;28;20436;-42
2023/02/22 01:33:01;;;;;;;23.80;10.88;;;;;;;7.75;75.00;99683.13;4976196;28;20064;-46
2023/02/22 01:35:32;;;;;;;26.80;11.52;;;;;;;7.75;74.42;99681.41;4985049;28;20046;-45
2023/02/22 01:38:01;;;;;;;25.67;9.73;;;;;;;7.72;74.40;99682.28;4985632;28;20093;-47
2023/02/22 01:40:33;;;;;;;23.33;10.85;;;;;;;7.69;75.10;99671.94;4969439;28;20062;-46
2023/02/22 01:43:14;;;;;;;26.98;10.80;;;;;;;7.71;75.31;99675.38;4970645;28;20050;-44
2023/02/22 01:48:41;;;;;;;27.92;11.50;;;;;;;7.70;74.98;99667.66;5049603;27;20399;-42
2023/02/22 01:56:26;;;;;;;26.95;12.10;;;;;;;7.76;74.68;99671.94;5064062;28;20382;-41
2023/02/22 01:58:56;;;;;;;;;;;;;;;7.65;74.38;99675.38;5045809;28;20053;-46
2023/02/22 02:01:24;;;;;;;25.80;12.10;;;;;;;7.75;75.18;99670.25;5044397;28;20020;-44
2023/02/22 02:03:56;;;;;;;28.52;13.43;;;;;;;7.78;74.10;99665.97;5030871;28;20144;-47
2023/02/22 02:06:25;;;;;;;28.05;12.70;;;;;;;7.79;74.42;99664.22;5021923;28;20133;-45
2023/02/22 02:11:30;;;;;;;37.95;17.75;;;;;;;8.22;74.26;99659.16;5070909;27;20406;-44
2023/02/22 02:13:57;;;;;;;31.58;12.98;;;;;;;7.94;74.71;99664.25;5044701;28;20106;-48
2023/02/22 02:16:30;;;;;;;30.02;12.85;;;;;;;7.90;74.93;99654.81;5040555;28;20049;-43
2023/02/22 02:18:56;;;;;;;25.65;11.13;;;;;;;7.87;75.51;99659.94;5037624;28;20050;-44
2023/02/22 02:22:03;;;;;;;27.08;11.57;;;;;;;7.80;74.58;99658.25;5026900;28;20108;-45
2023/02/22 02:27:11;;;;;;;27.77;10.73;;;;;;;7.81;74.26;99657.38;5095471;27;21090;-45
2023/02/22 02:32:29;;;;;;;32.55;13.32;;;;;;;7.81;74.32;99644.47;5064553;28;20379;-44
2023/02/22 02:38:22;;;;;;;26.23;13.10;;;;;;;7.77;74.59;99642.75;5064000;28;20403;-49
2023/02/22 02:43:48;;;;;;;27.52;10.90;;;;;;;7.78;75.37;99642.75;5036005;27;20398;-42
2023/02/22 02:46:21;;;;;;;30.63;12.13;;;;;;;7.81;75.15;99636.75;5020676;28;20409;-45
2023/02/22 02:48:55;;;;;;;27.20;11.05;;;;;;;7.81;75.01;99631.59;5023056;28;20049;-42
2023/02/22 02:51:28;;;;;;;29.00;12.48;;;;;;;7.82;75.26;99628.16;5012052;28;20640;-42
2023/02/22 02:53:55;;;;;;;30.85;11.90;;;;;;;7.79;74.84;99630.72;5004499;28;20108;-45
2023/02/22 02:56:22;;;;;;;30.17;11.98;;;;;;;7.78;74.58;99629.00;5004853;28;20093;-45
2023/02/22 02:58:51;;;;;;;29.95;11.07;;;;;;;7.78;75.68;99623.84;5004272;28;20049;-42
2023/02/22 03:01:42;;;;;;;28.67;11.60;;;;;;;7.72;75.36;99630.72;5023401;28;20680;-46
2023/02/22 03:20:30;;;;;;;31.17;12.13;;;;;;;7.84;75.08;99618.72;5028211;27;20406;-49
2023/02/22 03:23:08;;;;;;;30.60;13.45;;;;;;;7.81;74.83;99618.69;5022288;28;20069;-42
2023/02/22 03:25:42;;;;;;;29.48;10.70;;;;;;;7.79;75.73;99622.97;5023154;28;20069;-43
2023/02/22 03:28:13;;;;;;;25.30;10.38;;;;;;;7.77;75.73;99624.72;5007669;28;20041;-46
2023/02/22 03:30:47;;;;;;;25.67;10.07;;;;;;;7.75;75.50;99616.09;5037688;28;20049;-46
2023/02/22 03:33:19;;;;;;;24.70;9.55;;;;;;;7.72;74.95;99620.41;5044455;28;20045;-45
2023/02/22 03:35:55;;;;;;;22.33;9.55;;;;;;;7.71;74.86;99613.50;5035558;28;20050;-48
2023/02/22 03:38:25;;;;;;;23.52;8.93;;;;;;;7.71;75.28;99615.25;5014337;28;20084;-44
2023/02/22 03:40:54;;;;;;;;;;;;;;;7.58;75.02;99607.50;5024406;28;20188;-44
2023/02/22 03:43:26;;;;;;;22.38;8.43;;;;;;;7.65;74.88;99604.91;5023840;28;19925;-49
2023/02/22 03:45:53;;;;;;;24.77;9.30;;;;;;;7.65;75.77;99608.34;5024675;28;20080;-44
2023/02/22 03:48:30;;;;;;;23.70;11.05;;;;;;;7.65;75.49;99600.63;4995288;28;20074;-45
2023/02/22 03:50:57;;;;;;;;;;;;;;;7.55;75.94;99598.88;5010723;28;20489;-42
2023/02/22 03:53:24;;;;;;;24.83;9.50;;;;;;;7.61;76.06;99598.03;5023330;28;20420;-42
2023/02/22 03:55:54;;;;;;;23.95;9.85;;;;;;;7.59;75.70;99582.56;5013151;28;20493;-44
2023/02/22 03:58:23;;;;;;;26.77;9.05;;;;;;;7.58;75.74;99596.31;5020208;28;20038;-46
2023/02/22 04:00:51;;;;;;;23.85;9.13;;;;;;;7.57;75.87;99584.28;5025917;28;20128;-45
2023/02/22 04:03:20;;;;;;;25.27;8.48;;;;;;;7.59;74.83;99577.41;5023431;28;20046;-45
2023/02/22 04:05:46;;;;;;;25.67;9.57;;;;;;;7.59;75.83;99578.28;5022106;28;20579;-43
2023/02/22 04:08:13;;;;;;;25.67;9.48;;;;;;;7.59;75.40;99572.25;5020594;28;20053;-47
2023/02/22 04:10:40;;;;;;;28.23;9.23;;;;;;;7.61;75.98;99574.84;5026961;28;20173;-43
2023/02/22 04:13:07;;;;;;;26.27;9.00;;;;;;;7.59;75.62;99572.25;5023163;28;20074;-44
2023/02/22 04:15:34;;;;;;;29.60;8.88;;;;;;;7.58;76.10;99573.97;5038058;28;20061;-43
2023/02/22 04:18:01;;;;;;;23.20;9.05;;;;;;;7.59;75.17;99574.81;5021931;28;20081;-44
2023/02/22 04:20:27;;;;;;;25.85;8.20;;;;;;;7.58;75.08;99571.41;5022955;28;20070;-47
2023/02/22 04:22:54;;;;;;;24.27;8.88;;;;;;;7.60;75.09;99573.97;5043392;28;20577;-45
2023/02/22 04:25:23;;;;;;;26.83;9.38;;;;;;;7.58;75.12;99566.25;5020428;28;20054;-45
2023/02/22 04:27:50;;;;;;;27.20;11.05;;;;;;;7.58;76.10;99561.09;5021776;28;20084;-47
2023/02/22 04:30:17;;;;;;;25.35;9.35;;;;;;;7.58;75.24;99565.38;5027387;28;20109;-42
2023/02/22 04:32:45;;;;;;;25.58;8.73;;;;;;;7.58;75.75;99560.22;5012382;28;20088;-44
2023/02/22 04:35:12;;;;;;;24.80;8.85;;;;;;;7.56;75.29;99561.94;4999307;28;20089;-40
2023/02/22 04:37:38;;;;;;;19.98;8.68;;;;;;;7.55;76.36;99555.94;5002148;28;20054;-46
2023/02/22 04:40:06;;;;;;;22.58;8.30;;;;;;;7.56;75.42;99559.34;5018101;28;20053;-47
2023/02/22 04:42:34;;;;;;;23.75;8.50;;;;;;;7.55;75.46;99550.78;5008839;28;20050;-44
2023/02/22 04:45:02;;;;;;;23.40;7.88;;;;;;;7.54;76.21;99554.19;4995788;28;20238;-42
2023/02/22 04:47:28;;;;;;;21.80;8.48;;;;;;;7.54;75.76;99553.34;4997618;28;20096;-44
2023/02/22 04:49:55;;;;;;;19.75;8.73;;;;;;;7.55;75.75;99544.75;4998057;28;20082;-43
2023/02/22 04:52:21;;;;;;;20.88;10.60;;;;;;;7.55;75.20;99542.19;5007366;28;20077;-47
2023/02/22 04:54:49;;;;;;;26.35;10.30;;;;;;;7.55;76.11;99540.47;5009830;28;20481;-44
2023/02/22 04:57:16;;;;;;;19.73;8.32;;;;;;;7.56;75.35;99531.00;5009280;28;20132;-46
2023/02/22 04:59:42;;;;;;;24.65;8.68;;;;;;;7.55;75.24;99534.44;5015389;28;20657;-45
2023/02/22 05:02:09;;;;;;;19.75;7.32;;;;;;;7.56;76.08;99528.41;5021461;28;20085;-42
2023/02/22 05:04:37;;;;;;;18.42;7.90;;;;;;;7.55;75.25;99532.75;4992149;28;20081;-44
2023/02/22 05:07:04;;;;;;;23.92;7.95;;;;;;;7.54;75.74;99532.72;4987571;28;20058;-44
2023/02/22 05:09:31;;;;;;;19.55;7.43;;;;;;;7.54;76.18;99532.72;4996930;28;20103;-43
2023/02/22 05:11:57;;;;;;;21.15;8.27;;;;;;;7.54;76.05;99530.16;5011322;28;20046;-43
2023/02/22 05:14:26;;;;;;;19.70;7.68;;;;;;;7.53;75.15;99531.03;5009940;28;20054;-47
2023/02/22 05:16:55;;;;;;;18.13;7.53;;;;;;;7.52;75.01;99534.44;5009123;28;20081;-45
2023/02/22 05:19:22;;;;;;;22.25;7.68;;;;;;;7.50;75.12;99528.44;5001369;28;20501;-44
2023/02/22 05:21:49;;;;;;;18.67;7.07;;;;;;;7.49;76.06;99529.31;5007300;28;20078;-44
2023/02/22 05:24:16;;;;;;;19.30;7.78;;;;;;;7.49;75.47;99531.88;5005389;28;20661;-43
2023/02/22 05:26:44;;;;;;;17.75;7.20;;;;;;;7.46;75.13;99527.56;5011025;28;20097;-43
2023/02/22 05:29:11;;;;;;;19.77;7.95;;;;;;;7.44;75.14;99532.69;5041050;28;20080;-42
2023/02/22 05:31:38;;;;;;;22.15;7.85;;;;;;;7.44;76.08;99531.84;5031667;28;20077;-46
2023/02/22 05:34:05;;;;;;;17.88;7.40;;;;;;;7.43;75.15;99536.13;4989995;28;20050;-45
2023/02/22 05:36:31;;;;;;;16.77;7.07;;;;;;;7.43;75.29;99532.72;4999463;28;20053;-44
2023/02/22 05:38:58;;;;;;;18.85;7.20;;;;;;;7.41;75.16;99525.00;5005954;28;20049;-45
2023/02/22 05:41:24;;;;;;;21.42;9.27;;;;;;;7.39;76.35;99524.13;5006166;28;20054;-45
2023/02/22 05:43:51;;;;;;;16.75;6.57;;;;;;;7.38;76.38;99522.41;5008750;28;20084;-44
2023/02/22 05:46:18;;;;;;;19.10;9.93;;;;;;;7.35;75.86;99522.38;5008746;28;20042;-45
2023/02/22 05:48:44;;;;;;;21.50;9.18;;;;;;;7.35;75.75;99521.53;5006687;28;20171;-46
2023/02/22 05:51:11;;;;;;;19.17;6.82;;;;;;;7.35;75.18;99522.38;5008621;28;20081;-43
2023/02/22 05:53:38;;;;;;;21.90;7.47;;;;;;;7.33;76.25;99519.81;5005630;28;20146;-44
2023/02/22 05:56:05;;;;;;;18.60;6.70;;;;;;;7.33;76.22;99514.66;5008896;28;20137;-46
2023/02/22 05:58:31;;;;;;;16.48;6.30;;;;;;;7.31;75.28;99512.94;5008762;28;20100;-44
2023/02/22 06:00:58;;;;;;;16.70;6.38;;;;;;;7.30;75.08;99513.81;5002308;28;20229;-47
2023/02/22 06:03:27;;;;;;;18.73;6.07;;;;;;;7.30;75.03;99516.38;4996937;28;20513;-45
2023/02/22 06:05:54;;;;;;;16.42;6.15;;;;;;;7.29;76.91;99514.63;5008561;28;20943;-44
2023/02/22 06:08:20;;;;;;;17.15;8.18;;;;;;;7.28;75.71;99523.22;5007866;28;20441;-45
2023/02/22 06:10:47;;;;;;;15.38;6.38;;;;;;;7.26;75.76;99518.06;5013046;28;20441;-48
2023/02/22 06:13:13;;;;;;;20.55;7.20;;;;;;;7.27;76.61;99529.25;5008036;28;20133;-45
2023/02/22 06:15:40;;;;;;;15.98;7.80;;;;;;;7.28;75.80;99525.81;5005552;28;20046;-45
2023/02/22 06:18:06;;;;;;;17.42;6.45;;;;;;;7.28;75.61;99523.22;5002351;28;20137;-41
2023/02/22 06:20:34;;;;;;;17.77;6.07;;;;;;;7.27;76.55;99518.94;5008859;28;20049;-44
2023/02/22 06:23:01;;;;;;;25.08;7.45;;;;;;;7.24;76.28;99516.34;5007991;28;20065;-42
2023/02/22 06:25:30;;;;;;;21.27;8.00;;;;;;;7.24;76.57;99514.66;5007015;28;20054;-43
2023/02/22 06:27:58;;;;;;;22.05;7.55;;;;;;;7.24;75.94;99516.34;4990194;28;20046;-46
2023/02/22 06:30:27;;;;;;;22.23;9.88;;;;;;;7.24;77.12;99503.47;5019104;28;20428;-42
2023/02/22 06:32:53;;;;;;;25.05;9.95;;;;;;;7.25;76.20;99510.34;5013210;28;20053;-45
2023/02/22 06:35:20;;;;;;;24.42;10.20;;;;;;;7.24;76.84;99494.03;5008487;28;20560;-49
2023/02/22 06:37:47;;;;;;;26.17;10.48;;;;;;;7.23;76.75;99507.75;4993465;28;20117;-45
2023/02/22 06:40:14;;;;;;;21.95;7.88;;;;;;;7.20;75.81;99497.47;5013158;28;20568;-44
2023/02/22 06:42:41;;;;;;;25.65;8.57;;;;;;;7.18;76.37;99510.34;4993977;28;20070;-42
2023/02/22 06:45:08;;;;;;;20.08;8.48;;;;;;;7.16;77.07;99508.63;4988340;28;20050;-44
2023/02/22 06:47:40;;;;;;;26.17;9.07;;;;;;;7.14;76.04;99508.63;4998581;28;20088;-40
2023/02/22 06:50:16;;;;;;;25.88;8.77;;;;;;;7.14;76.19;99505.16;5005801;28;20049;-49
2023/02/22 06:52:43;;;;;;;25.75;8.77;;;;;;;7.09;76.63;99505.16;5005721;28;20199;-50
2023/02/22 06:55:10;;;;;;;25.23;10.40;;;;;;;7.07;75.53;99512.03;5007700;28;20340;-42
2023/02/22 06:57:36;;;;;;;23.77;8.55;;;;;;;7.07;75.88;99506.88;5007697;28;20045;-45
2023/02/22 07:00:03;;;;;;;24.17;7.80;;;;;;;7.08;76.65;99508.59;5015744;28;20567;-47
2023/02/22 07:02:30;;;;;;;21.30;7.88;;;;;;;7.07;75.74;99506.88;4999945;28;20050;-43
2023/02/22 07:04:56;;;;;;;22.35;8.25;;;;;;;7.06;75.79;99510.31;5003907;28;20093;-42
2023/02/22 07:07:24;;;;;;;22.30;8.02;;;;;;;7.06;76.05;99510.31;5007444;28;20081;-45
2023/02/22 07:09:50;;;;;;;22.10;7.38;;;;;;;7.06;76.98;99510.31;5013939;28;20095;-44
2023/02/22 07:12:17;;;;;;;27.50;8.75;;;;;;;7.05;76.26;99493.13;5007270;28;20083;-45
2023/02/22 07:14:43;;;;;;;20.50;7.43;;;;;;;7.05;76.12;99504.28;5007479;28;20050;-46
2023/02/22 07:17:10;;;;;;;22.67;8.13;;;;;;;7.06;77.33;99507.75;4995624;28;20050;-47
2023/02/22 07:19:37;;;;;;;23.48;7.90;;;;;;;7.04;75.70;99504.28;4997775;28;20532;-48
2023/02/22 07:22:05;;;;;;;23.35;8.45;;;;;;;7.03;75.91;99510.28;5006958;28;20045;-42
2023/02/22 07:24:33;;;;;;;23.88;8.57;;;;;;;7.05;76.87;99513.72;5001674;28;20150;-42
2023/02/22 07:27:01;;;;;;;24.05;8.15;;;;;;;7.04;77.09;99501.72;5014914;28;20116;-43
2023/02/22 07:29:28;;;;;;;25.38;10.00;;;;;;;7.05;75.73;99508.56;5045134;28;20041;-46
2023/02/22 07:31:54;;;;;;;24.80;8.85;;;;;;;7.06;77.26;99520.63;5027254;28;20501;-45
2023/02/22 07:34:21;;;;;;;19.88;7.50;;;;;;;7.07;76.12;99527.47;4987057;28;20050;-45
2023/02/22 07:36:47;;;;;;;23.95;8.45;;;;;;;7.09;77.38;99515.44;4992195;28;20069;-41
2023/02/22 07:39:14;;;;;;;22.80;9.57;;;;;;;7.10;76.54;99512.03;5003407;28;20532;-41
2023/02/22 07:41:41;;;;;;;21.77;7.47;;;;;;;7.13;75.99;99518.91;4992166;28;20078;-42
2023/02/22 07:44:07;;;;;;;20.90;7.63;;;;;;;7.14;77.17;99502.59;5007547;28;20101;-42
2023/02/22 07:46:34;;;;;;;22.38;7.75;;;;;;;7.14;76.30;99508.63;5006754;28;20545;-43
2023/02/22 07:49:00;;;;;;;21.00;7.55;;;;;;;7.16;76.50;99506.88;5007769;28;20089;-44
2023/02/22 07:51:27;;;;;;;24.95;9.82;;;;;;;7.19;76.39;99512.06;5003792;28;20485;-42
2023/02/22 07:53:53;;;;;;;21.80;7.38;;;;;;;7.22;75.73;99523.22;4987397;28;20100;-42
2023/02/22 07:56:20;;;;;;;19.25;6.55;;;;;;;7.23;76.38;99533.50;4987797;28;20078;-48
2023/02/22 07:58:47;;;;;;;21.42;7.22;;;;;;;7.23;75.97;99525.78;4989736;28;20107;-45
2023/02/22 08:01:13;;;;;;;20.75;6.50;;;;;;;7.26;76.45;99523.22;5034337;28;20111;-46
2023/02/22 08:03:41;;;;;;;18.85;6.07;;;;;;;7.29;76.28;99535.25;5026965;28;20053;-43
2023/02/22 08:06:08;;;;;;;24.30;10.32;;;;;;;7.32;76.78;99538.69;5008976;28;20461;-48
2023/02/22 08:08:35;;;;;;;21.30;6.63;;;;;;;7.34;76.18;99536.13;4997285;28;20140;-48
2023/02/22 08:11:01;;;;;;;20.45;7.30;;;;;;;7.37;75.65;99533.56;5024092;28;20361;-43
2023/02/22 08:13:28;;;;;;;18.27;5.97;;;;;;;7.38;76.40;99537.88;5030251;28;20573;-45
2023/02/22 08:15:55;;;;;;;21.70;7.43;;;;;;;7.40;76.58;99538.69;5015658;28;20483;-42
2023/02/22 08:18:23;;;;;;;27.73;7.40;;;;;;;7.42;76.64;99538.72;5008424;28;20112;-43
2023/02/22 08:20:51;;;;;;;22.85;6.70;;;;;;;7.43;76.26;99543.03;5006764;28;20046;-46
2023/02/22 08:23:20;;;;;;;20.95;7.05;;;;;;;7.43;77.41;99533.56;5008687;28;20502;-43
2023/02/22 08:25:46;;;;;;;23.00;8.93;;;;;;;7.44;77.47;99532.69;5004339;28;20070;-41
2023/02/22 08:28:15;;;;;;;22.65;7.15;;;;;;;7.48;76.23;99535.28;5001214;28;20169;-43
2023/02/22 08:30:42;;;;;;;20.67;7.00;;;;;;;7.50;76.17;99536.16;5009852;28;20076;-42
2023/02/22 08:33:13;;;;;;;19.70;6.93;;;;;;;7.53;76.16;99534.44;5005115;28;20076;-43
2023/02/22 08:35:40;;;;;;;22.58;7.40;;;;;;;7.55;76.24;99540.47;5011243;28;20052;-43
2023/02/22 08:38:14;;;;;;;20.30;7.18;;;;;;;7.58;76.56;99540.47;5044941;28;20049;-44
2023/02/22 08:40:40;;;;;;;19.25;6.50;;;;;;;7.61;77.17;99542.19;5008325;28;20077;-45
2023/02/22 08:43:07;;;;;;;19.40;7.22;;;;;;;7.59;77.48;99542.19;5001714;28;20078;-43
2023/02/22 08:45:33;;;;;;;22.58;8.25;;;;;;;7.60;76.08;99540.44;4989210;28;20523;-41
2023/02/22 08:48:01;;;;;;;21.50;6.72;;;;;;;7.63;76.32;99545.63;4990199;28;20096;-45
2023/02/22 08:50:29;;;;;;;23.98;6.40;;;;;;;7.61;77.40;99534.47;4990630;28;20119;-44
2023/02/22 08:52:58;;;;;;;24.02;8.63;;;;;;;7.64;76.47;99534.47;5010053;28;20466;-47
2023/02/22 08:55:28;;;;;;;20.58;7.25;;;;;;;7.66;77.12;99535.31;5008121;28;20057;-46
2023/02/22 08:57:55;;;;;;;22.45;7.28;;;;;;;7.68;76.60;99541.34;4995934;28;20536;-47
2023/02/22 09:00:25;;;;;;;17.35;7.07;;;;;;;7.70;77.01;99543.94;4998267;28;20077;-43
2023/02/22 09:02:52;;;;;;;25.48;7.97;;;;;;;7.69;77.54;99542.19;5006183;28;20046;-45
2023/02/22 09:05:19;;;;;;;20.48;7.30;;;;;;;7.69;77.11;99543.06;5009990;28;20517;-44
2023/02/22 09:07:45;;;;;;;19.55;6.53;;;;;;;7.70;76.37;99529.31;5008329;28;20135;-46
2023/02/22 09:10:14;;;;;;;25.02;7.70;;;;;;;7.74;77.61;99544.78;5018579;28;20317;-44
2023/02/22 09:12:41;;;;;;;21.85;7.30;;;;;;;7.71;76.50;99541.31;5028988;28;20553;-44
2023/02/22 09:15:09;;;;;;;22.30;7.40;;;;;;;7.75;76.96;99546.50;5028055;28;20077;-42
2023/02/22 09:17:36;;;;;;;22.13;8.07;;;;;;;7.76;76.75;99554.22;5015451;28;20484;-46
2023/02/22 09:20:06;;;;;;;22.60;7.43;;;;;;;7.76;76.76;99553.34;4995884;28;20042;-43
2023/02/22 09:22:33;;;;;;;20.85;7.40;;;;;;;7.75;76.42;99552.53;4988749;28;20050;-41
2023/02/22 09:25:00;;;;;;;25.50;9.18;;;;;;;7.77;77.04;99555.09;4989634;28;20046;-46
2023/02/22 09:27:42;;;;;;;20.67;7.13;;;;;;;7.77;76.81;99549.94;5008216;28;20787;-48
2023/02/22 09:33:04;;;;;;;29.08;9.02;;;;;;;7.79;76.52;99553.38;5097666;27;20391;-40
2023/02/22 09:35:34;;;;;;;31.13;10.60;;;;;;;7.80;77.60;99555.94;5064087;28;20075;-48
2023/02/22 09:38:05;;;;;;;31.35;9.52;;;;;;;7.84;77.64;99555.09;5063061;28;20080;-50
2023/02/22 09:40:39;;;;;;;35.00;10.75;;;;;;;7.86;77.73;99549.94;5062703;28;20504;-47
2023/02/22 09:48:50;;;;;;;30.15;9.88;;;;;;;7.96;77.29;99551.66;5046926;27;20398;-46
2023/02/22 09:51:19;;;;;;;22.85;8.50;;;;;;;7.99;77.22;99555.97;5023722;28;20046;-47
2023/02/22 09:53:48;;;;;;;25.67;9.68;;;;;;;8.02;77.13;99555.09;5042423;28;20455;-43
2023/02/22 09:56:19;;;;;;;25.73;9.52;;;;;;;8.06;77.32;99557.69;5044438;28;20106;-48
2023/02/22 09:58:51;;;;;;;26.00;9.90;;;;;;;8.11;77.76;99557.69;5004665;28;20049;-44
2023/02/22 10:01:27;;;;;;;23.88;7.95;;;;;;;8.14;76.75;99554.25;5041700;28;20455;-49
2023/02/22 10:04:20;;;;;;;23.38;8.57;;;;;;;8.17;77.46;99569.72;5030805;28;20144;-44
2023/02/22 10:09:48;;;;;;;32.03;12.45;;;;;;;8.61;76.52;99570.53;5037579;28;20913;-48
2023/02/22 10:12:29;;;;;;;25.73;10.30;;;;;;;8.40;76.82;99568.81;5004758;28;20497;-48
2023/02/22 10:21:12;;;;;;;27.95;9.75;;;;;;;8.40;77.23;99576.56;5083201;27;20374;-43
2023/02/22 10:24:18;;;;;;;22.67;8.98;;;;;;;8.38;77.68;99574.00;5016777;28;20401;-40
2023/02/22 10:26:46;;;;;;;25.42;9.48;;;;;;;8.41;77.29;99573.13;5038221;28;20045;-43
2023/02/22 10:29:25;;;;;;;27.83;10.07;;;;;;;8.37;76.97;99577.41;5024804;28;20100;-44
2023/02/22 10:31:57;;;;;;;31.88;10.95;;;;;;;8.36;76.84;99578.28;5063248;28;20252;-42
2023/02/22 10:34:27;;;;;;;31.08;10.73;;;;;;;8.36;77.35;99570.56;5049173;28;20045;-48
2023/02/22 10:37:07;;;;;;;31.05;10.98;;;;;;;8.35;76.81;99574.84;5043601;28;20074;-48
2023/02/22 10:39:37;;;;;;;26.95;9.10;;;;;;;8.36;77.35;99570.56;5043151;28;20141;-44
2023/02/22 10:42:06;;;;;;;29.50;10.45;;;;;;;8.37;77.08;99574.84;5043990;28;20049;-42
2023/02/22 10:44:35;;;;;;;26.38;9.38;;;;;;;8.38;77.70;99583.47;5045124;28;20060;-42
2023/02/22 10:47:05;;;;;;;23.95;8.00;;;;;;;8.42;77.87;99587.75;5056110;28;20076;-44
2023/02/22 10:49:38;;;;;;;23.67;8.85;;;;;;;8.48;77.07;99585.19;5022542;28;20073;-44
2023/02/22 10:52:16;;;;;;;27.60;9.00;;;;;;;8.56;77.49;99585.19;5022773;28;20464;-45
2023/02/22 10:54:45;;;;;;;24.40;8.88;;;;;;;8.64;77.58;99586.00;5023100;28;20073;-45
2023/02/22 10:57:12;;;;;;;22.10;8.15;;;;;;;8.71;76.97;99587.72;5015577;28;20108;-44
2023/02/22 10:59:41;;;;;;;18.98;8.20;;;;;;;8.74;77.38;99587.72;5009475;28;20050;-48
2023/02/22 11:02:19;;;;;;;19.27;7.05;;;;;;;8.74;77.10;99582.56;5022327;28;20548;-46
2023/02/22 11:04:49;;;;;;;18.40;6.63;;;;;;;8.74;77.19;99582.56;5021209;28;20073;-44
2023/02/22 11:09:58;;;;;;;13.68;4.80;;;;;;;8.70;77.63;99591.19;5042043;27;20997;-42
2023/02/22 11:17:56;;;;;;;12.40;5.30;;;;;;;8.73;77.03;99601.50;5065196;27;20754;-48
2023/02/22 11:20:27;;;;;;;11.73;4.03;;;;;;;8.70;76.87;99601.50;5004943;28;20073;-44
2023/02/22 11:22:57;;;;;;;13.77;5.85;;;;;;;8.72;77.05;99597.19;5001617;28;20453;-47
2023/02/22 11:25:25;;;;;;;;;;;;;;;8.58;77.59;99612.69;5003666;28;20054;-44
2023/02/22 11:27:52;;;;;;;12.50;4.07;;;;;;;8.62;76.73;99603.25;5004556;28;19964;-46
2023/02/22 11:30:31;;;;;;;7.05;3.08;;;;;;;8.40;77.12;99597.19;5001474;28;20126;-45
2023/02/22 11:33:22;;;;;;;7.63;3.17;;;;;;;8.41;77.19;99604.94;5003473;28;20133;-42
2023/02/22 11:35:55;;;;;;;4.70;2.38;;;;;;;8.22;77.16;99612.72;5002707;28;20054;-41
2023/02/22 11:38:31;;;;;;;5.00;1.85;;;;;;;8.23;76.66;99619.59;4998773;28;20093;-42
2023/02/22 11:41:21;;;;;;;2.92;1.05;;;;;;;8.07;76.02;99615.31;4999965;28;20105;-43
2023/02/22 11:43:50;;;;;;;3.13;1.30;;;;;;;8.14;75.43;99611.00;5001549;28;20084;-49
2023/02/22 11:46:21;;;;;;;3.25;1.20;;;;;;;8.13;76.38;99610.13;5003228;28;20549;-47
2023/02/22 11:49:07;;;;;;;2.42;1.00;;;;;;;8.11;75.65;99614.44;5002318;28;20058;-41
2023/02/22 11:52:02;;;;;;;1.10;0.50;;;;;;;8.18;75.43;99613.56;5001511;28;20046;-43
2023/02/22 12:05:27;;;;;;;3.15;1.30;;;;;;;8.86;73.90;99622.13;5084919;27;20389;-45
2023/02/22 12:16:33;;;;;;;2.83;2.55;;;;;;;9.02;72.64;99635.84;5040056;27;20394;-41
2023/02/22 12:21:42;;;;;;;3.78;1.65;;;;;;;9.34;72.22;99631.44;5055410;27;20419;-44
2023/02/22 12:24:15;;;;;;;1.73;0.98;;;;;;;9.13;72.50;99630.66;5010342;28;20140;-43
2023/02/22 12:26:49;;;;;;;1.23;0.57;;;;;;;9.10;72.54;99635.81;5054621;28;20077;-47
2023/02/22 12:32:01;;;;;;;1.52;0.88;;;;;;;9.04;72.64;99636.72;5026590;28;20398;-47
2023/02/22 12:37:13;;;;;;;2.00;0.80;;;;;;;9.02;71.95;99638.41;5038300;28;20394;-46
2023/02/22 12:40:22;;;;;;;3.42;1.27;;;;;;;9.05;72.42;99630.66;5007276;28;20136;-44
2023/02/22 12:45:39;;;;;;;3.45;2.47;;;;;;;9.23;72.18;99634.91;5089211;27;20395;-45
2023/02/22 12:50:55;;;;;;;1.67;1.00;;;;;;;9.23;71.12;99637.50;5078802;27;20370;-48
2023/02/22 12:56:18;;;;;;;1.55;0.80;;;;;;;9.10;70.25;99647.03;5065219;28;20380;-48
2023/02/22 13:01:36;;;;;;;2.97;1.00;;;;;;;9.25;71.20;99656.44;5053175;27;20396;-44
2023/02/22 13:04:03;;;;;;;1.30;0.50;;;;;;;9.39;70.60;99646.03;5044587;28;20064;-44
2023/02/22 13:26:08;;;;;;;2.22;1.63;;;;;;;10.03;67.04;99656.03;5028149;27;20399;-44
2023/02/22 13:28:42;;;;;;;3.20;2.65;;;;;;;9.64;67.87;99658.88;5003883;28;20185;-45
2023/02/22 13:42:49;;;;;;;4.30;2.67;;;;;;;9.41;68.29;99660.69;5050530;27;20398;-44
2023/02/22 13:48:32;;;;;;;3.05;1.33;;;;;;;9.37;67.24;99665.88;5079021;27;20382;-42
2023/02/22 13:54:02;;;;;;;2.60;1.33;;;;;;;9.30;67.59;99653.84;5075403;27;20394;-42
2023/02/22 13:56:29;;;;;;;1.98;1.05;;;;;;;9.49;67.93;99659.78;5023876;28;20141;-44
2023/02/22 13:59:02;;;;;;;2.75;1.15;;;;;;;9.44;67.19;99664.13;5023975;28;20057;-42
2023/02/22 14:01:46;;;;;;;3.70;2.00;;;;;;;9.58;67.35;99663.19;5038837;28;20148;-46
2023/02/22 14:09:58;;;;;;;4.30;1.13;;;;;;;9.95;66.49;99657.81;5050104;27;20394;-45
2023/02/22 14:15:20;;;;;;;4.05;0.90;;;;;;;9.91;63.59;99656.13;5057615;27;20386;-45
2023/02/22 14:20:35;;;;;;;3.17;1.67;;;;;;;10.07;64.46;99656.03;5084872;27;20378;-42